Archer City, TX

11:50 AM CDT on July 23, 2014 (GMT -0500)
Sheppard Air Force Base-Wichita Falls Municipal (KSPS) Elev 1030 ft | 33.98 °N, 98.49 °W | Change Station
Active Advisory: Heat Advisory

Current weather conditions updated 58 minutes ago

Clear
Clear
87 °F
Feels Like 94 °F
N
0
Wind Variable Wind from North

Today is forecast to be Warmer than yesterday.

Today
High -- | Low -- °F
--% Chance of Precip.
Yesterday
High -- | Low -- °F
Precip. -- in
6:40 AM 8:41 PM
Waning Crescent, 10% visible
Pressure 30.09 in
Visibility 7.0 miles
Clouds Clear
Heat Index 94 °F
Dew Point 72 °F
Humidity 61%
Rainfall 0.00 in
Snow Depth Not available.
UV 8 out of 12
Pollen 4.70 out of 12
Air Quality Not available.
Flu Activity Not available.
METAR KSPS 231552Z 00000KT 7SM CLR 31/22 A3013 RMK AO2 SLP187 T03060222

More Conditions Fewer Conditions

Pressure 30.09 in
Visibility 7.0 miles
Clouds Clear
Heat Index 94 °F
Dew Point 72 °F
Humidity 61%
Rainfall 0.00 in
Snow Depth Not available.
UV 8 out of 12
Pollen 4.70 out of 12
Air Quality Not available.
Flu Activity Not available.
METAR KSPS 231552Z 00000KT 7SM CLR 31/22 A3013 RMK AO2 SLP187 T03060222

More Conditions Fewer Conditions

10-Day Weather Forecast

Almanac

Astronomy

Jul. 23, 2014 Rise Set
Actual Time 6:40 AM CDT 8:41 PM CDT
Civil Twilight 6:12 AM CDT 9:08 PM CDT
Nautical Twilight 5:38 AM CDT 9:42 PM CDT
Astronomical Twilight 5:02 AM CDT 10:18 PM CDT
Moon 3:59 AM CDT 6:11 PM CDT
Length of Visible Light 14h 56m
Length of Day
14h 00m
Tomorrow will be 1m 20s shorter.
Waning Crescent, 10% of the Moon is Illuminated
Today
Waning Crescent
Jul 26
New
Aug 3
First Quarter
Aug 10
Full
Aug 17
Last Quarter

Today's Extremes

State Highs State Lows

Community

WunderPhotos

Upload Photos

1,736,668 photos uploaded!

Nearby

Snow Depth

Station Depth Elevation
No new snow has been reported.

Earthquake Activity

City Distance Mag. Time & Date
Harrah, Oklahoma 157 miles 2.8 6:02 PM CDT
2014-07-16
Minimum magnitude displayed is 2.5.

Coastal Water Temperatures

Place Temperature
No Stations Reporting

Nearby Weather Stations

Station Location Temp. Heat Index Dew Point Humidity Wind Precip. Elev Updated Type
Parker Rd, Wichita Falls, TX 95.4 °F 112 °F 78 °F 57% ESE  at  2.7 mph - / hr 1030 ft 11:37 AM CDT Normal
Southwest Prky/Rhea Rd., WICHITA FALLS, TX 89.5 °F 99 °F 74 °F 61% SSE  at  2.7 mph 0.00 in / hr 984 ft 11:45 AM CDT Normal
WichitaFalls, TX 90.9 °F 100 °F 74 °F 57% South  at  2.0 mph - / hr 991 ft 11:37 AM CDT Normal
Wedgewood, Wichita Falls, TX 94.6 °F 103 °F 72 °F 48% South  at  2.0 mph 0.00 in / hr 961 ft 11:50 AM CDT Normal
Hirschi, Wichita Falls, TX 91.0 °F 100 °F 74 °F 57% NE  at  2.0 mph 0.00 in / hr 965 ft 11:36 AM CDT Normal

Show More Stations Show Fewer Stations